createdAt,value
2022-12-23T00:00:13.713Z,983.56
2022-12-23T00:01:13.691Z,983.55
2022-12-23T00:02:13.815Z,983.59
2022-12-23T00:03:13.763Z,983.61
2022-12-23T00:04:13.692Z,983.58
2022-12-23T00:05:13.657Z,983.64
2022-12-23T00:06:13.629Z,983.58
2022-12-23T00:07:13.631Z,983.60
2022-12-23T00:08:13.607Z,983.63
2022-12-23T00:09:13.609Z,983.57
2022-12-23T00:10:13.601Z,983.56
2022-12-23T00:11:13.579Z,983.51
2022-12-23T00:12:13.567Z,983.55
2022-12-23T00:13:13.564Z,983.55
2022-12-23T00:14:20.465Z,983.55
2022-12-23T00:15:14.562Z,983.47
2022-12-23T00:16:13.579Z,983.51
2022-12-23T00:17:28.611Z,983.56
2022-12-23T00:18:14.500Z,983.47
2022-12-23T00:19:13.495Z,983.49
2022-12-23T00:20:13.522Z,983.55
2022-12-23T00:21:13.495Z,983.53
2022-12-23T00:22:13.460Z,983.54
2022-12-23T00:23:13.465Z,983.48
2022-12-23T00:24:13.431Z,983.53
2022-12-23T00:25:13.450Z,983.48
2022-12-23T00:26:13.426Z,983.54
2022-12-23T00:27:13.403Z,983.50
2022-12-23T00:28:13.399Z,983.49
2022-12-23T00:29:13.415Z,983.50
2022-12-23T00:30:13.387Z,983.48
2022-12-23T00:31:13.558Z,983.52
2022-12-23T00:32:13.382Z,983.47
2022-12-23T00:33:13.354Z,983.49
2022-12-23T00:34:13.332Z,983.43
2022-12-23T00:35:13.391Z,983.40
2022-12-23T00:36:13.419Z,983.36
2022-12-23T00:37:13.302Z,983.43
2022-12-23T00:38:13.290Z,983.40
2022-12-23T00:39:13.284Z,983.42
2022-12-23T00:40:13.276Z,983.45
2022-12-23T00:41:13.269Z,983.41
2022-12-23T00:42:13.249Z,983.43
2022-12-23T00:43:13.241Z,983.41
2022-12-23T00:44:13.233Z,983.40
2022-12-23T00:45:13.247Z,983.37
2022-12-23T00:46:13.242Z,983.46
2022-12-23T00:47:13.200Z,983.44
2022-12-23T00:48:13.181Z,983.47
2022-12-23T00:49:13.195Z,983.51
2022-12-23T00:50:13.185Z,983.52
2022-12-23T00:51:13.171Z,983.51
2022-12-23T00:52:13.132Z,983.52
2022-12-23T00:53:13.133Z,983.55
2022-12-23T00:54:13.124Z,983.57
2022-12-23T00:55:13.150Z,983.56
2022-12-23T00:56:13.094Z,983.54
2022-12-23T00:57:13.108Z,983.53
2022-12-23T00:58:13.079Z,983.55
2022-12-23T00:59:13.077Z,983.55
2022-12-23T01:00:13.102Z,983.57
2022-12-23T01:01:13.129Z,983.57
2022-12-23T01:02:13.130Z,983.58
2022-12-23T01:03:13.191Z,983.63
2022-12-23T01:04:13.016Z,983.60
2022-12-23T01:05:13.029Z,983.67
2022-12-23T01:06:12.998Z,983.66
2022-12-23T01:07:13.007Z,983.66
2022-12-23T01:08:12.967Z,983.71
2022-12-23T01:09:12.973Z,983.62
2022-12-23T01:10:12.950Z,983.65
2022-12-23T01:11:12.962Z,983.58
2022-12-23T01:12:12.970Z,983.62
2022-12-23T01:13:12.938Z,983.65
2022-12-23T01:14:12.899Z,983.58
2022-12-23T01:15:12.944Z,983.56
2022-12-23T01:16:17.204Z,983.63
2022-12-23T01:17:13.994Z,983.63
2022-12-23T01:18:12.905Z,983.60
2022-12-23T01:19:12.918Z,983.62
2022-12-23T01:20:12.914Z,983.55
2022-12-23T01:21:12.913Z,983.57
2022-12-23T01:22:12.876Z,983.59
2022-12-23T01:23:12.817Z,983.56
2022-12-23T01:24:12.811Z,983.62
2022-12-23T01:25:12.795Z,983.57
2022-12-23T01:26:12.800Z,983.58
2022-12-23T01:27:12.783Z,983.58
2022-12-23T01:28:12.764Z,983.55
2022-12-23T01:29:12.764Z,983.62
2022-12-23T01:30:12.747Z,983.58
2022-12-23T01:31:12.947Z,983.57
2022-12-23T01:32:12.774Z,983.58
2022-12-23T01:33:12.740Z,983.55
2022-12-23T01:34:12.696Z,983.62
2022-12-23T01:35:12.690Z,983.59
2022-12-23T01:36:12.694Z,983.66
2022-12-23T01:37:12.670Z,983.59
2022-12-23T01:38:12.657Z,983.67
2022-12-23T01:39:12.657Z,983.65
2022-12-23T01:40:12.630Z,983.62
2022-12-23T01:41:12.648Z,983.66
2022-12-23T01:42:12.611Z,983.67
2022-12-23T01:43:12.603Z,983.65
2022-12-23T01:44:12.591Z,983.74
2022-12-23T01:45:12.594Z,983.77
2022-12-23T01:46:12.663Z,983.79
2022-12-23T01:47:12.577Z,983.83
2022-12-23T01:48:12.544Z,983.84
2022-12-23T01:49:12.538Z,983.85
2022-12-23T01:50:12.543Z,983.76
2022-12-23T01:51:12.576Z,983.83
2022-12-23T01:52:12.518Z,983.83
2022-12-23T01:53:12.527Z,983.80
2022-12-23T01:54:12.486Z,983.79
2022-12-23T01:55:12.488Z,983.78
2022-12-23T01:56:12.474Z,983.80
2022-12-23T01:57:12.455Z,983.83
2022-12-23T01:58:12.449Z,983.80
2022-12-23T01:59:12.436Z,983.80
2022-12-23T02:00:12.433Z,983.84
2022-12-23T02:01:12.465Z,983.88
2022-12-23T02:02:12.547Z,983.82
2022-12-23T02:03:12.487Z,983.78
2022-12-23T02:04:12.377Z,983.81
2022-12-23T02:05:12.370Z,983.87
2022-12-23T02:06:12.377Z,983.81
2022-12-23T02:07:12.351Z,983.85
2022-12-23T02:08:12.339Z,983.87
2022-12-23T02:09:12.335Z,983.90
2022-12-23T02:10:12.324Z,983.90
2022-12-23T02:11:12.323Z,983.84
2022-12-23T02:12:12.304Z,983.83
2022-12-23T02:13:12.281Z,983.81
2022-12-23T02:14:12.307Z,983.81
2022-12-23T02:15:12.305Z,983.81
2022-12-23T02:16:12.268Z,983.73
2022-12-23T02:17:12.325Z,983.73
2022-12-23T02:18:12.231Z,983.79
2022-12-23T02:19:12.228Z,983.79
2022-12-23T02:20:12.216Z,983.81
2022-12-23T02:21:12.222Z,983.85
2022-12-23T02:22:12.190Z,983.88
2022-12-23T02:23:12.194Z,983.90
2022-12-23T02:24:12.171Z,983.90
2022-12-23T02:25:12.165Z,983.95
2022-12-23T02:26:12.170Z,983.96
2022-12-23T02:27:12.153Z,983.94
2022-12-23T02:28:12.126Z,983.88
2022-12-23T02:29:12.125Z,983.98
2022-12-23T02:30:12.105Z,983.99
2022-12-23T02:31:12.167Z,983.97
2022-12-23T02:32:12.086Z,984.08
2022-12-23T02:33:12.078Z,984.06
2022-12-23T02:34:12.074Z,984.05
2022-12-23T02:35:12.056Z,984.10
2022-12-23T02:36:12.083Z,984.09
2022-12-23T02:37:12.041Z,984.10
2022-12-23T02:38:12.027Z,984.05
2022-12-23T02:39:12.006Z,984.03
2022-12-23T02:40:12.003Z,984.10
2022-12-23T02:41:12.005Z,984.04
2022-12-23T02:42:11.989Z,984.00
2022-12-23T02:43:11.973Z,984.13
2022-12-23T02:44:11.984Z,984.16
2022-12-23T02:45:11.972Z,984.18
2022-12-23T02:46:11.957Z,984.17
2022-12-23T02:47:11.949Z,984.18
2022-12-23T02:48:11.916Z,984.20
2022-12-23T02:49:11.916Z,984.25
2022-12-23T02:50:11.911Z,984.19
2022-12-23T02:51:11.893Z,984.24
2022-12-23T02:52:11.905Z,984.17
2022-12-23T02:53:11.893Z,984.26
2022-12-23T02:54:11.871Z,984.21
2022-12-23T02:55:11.851Z,984.21
2022-12-23T02:56:11.840Z,984.24
2022-12-23T02:57:11.836Z,984.18
2022-12-23T02:58:11.812Z,984.21
2022-12-23T02:59:11.809Z,984.29
2022-12-23T03:00:11.797Z,984.28
2022-12-23T03:01:11.867Z,984.20
2022-12-23T03:02:11.910Z,984.24
2022-12-23T03:03:11.848Z,984.21
2022-12-23T03:04:11.776Z,984.17
2022-12-23T03:05:11.727Z,984.12
2022-12-23T03:06:11.747Z,984.13
2022-12-23T03:07:18.202Z,984.12
2022-12-23T03:08:12.706Z,984.07
2022-12-23T03:09:11.697Z,984.04
2022-12-23T03:10:11.683Z,984.12
2022-12-23T03:11:11.696Z,984.06
2022-12-23T03:12:11.678Z,984.05
2022-12-23T03:13:11.646Z,984.03
2022-12-23T03:14:11.647Z,984.12
2022-12-23T03:15:11.641Z,984.05
2022-12-23T03:16:11.678Z,984.05
2022-12-23T03:17:11.642Z,984.04
2022-12-23T03:18:11.601Z,984.04
2022-12-23T03:19:11.592Z,984.00
2022-12-23T03:20:11.591Z,983.99
2022-12-23T03:21:11.570Z,984.03
2022-12-23T03:22:11.580Z,984.03
2022-12-23T03:23:11.541Z,984.04
2022-12-23T03:24:11.538Z,984.12
2022-12-23T03:25:11.536Z,984.06
2022-12-23T03:26:11.513Z,984.08
2022-12-23T03:27:11.526Z,984.06
2022-12-23T03:28:11.503Z,984.06
2022-12-23T03:29:11.484Z,984.04
2022-12-23T03:30:11.483Z,983.99
2022-12-23T03:31:11.555Z,984.01
2022-12-23T03:32:11.491Z,983.96
2022-12-23T03:33:11.444Z,983.94
2022-12-23T03:34:11.433Z,983.92
2022-12-23T03:35:11.416Z,983.90
2022-12-23T03:36:11.420Z,983.91
2022-12-23T03:37:11.416Z,983.97
2022-12-23T03:38:11.393Z,983.97
2022-12-23T03:39:11.376Z,983.96
2022-12-23T03:40:11.367Z,984.01
2022-12-23T03:41:11.353Z,984.02
2022-12-23T03:42:11.364Z,983.98
2022-12-23T03:43:11.332Z,983.98
2022-12-23T03:44:11.329Z,983.98
2022-12-23T03:45:37.538Z,983.96
2022-12-23T03:46:12.405Z,983.95
2022-12-23T03:47:11.305Z,983.96
2022-12-23T03:48:11.289Z,983.92
2022-12-23T03:49:11.283Z,984.04
2022-12-23T03:50:11.257Z,984.06
2022-12-23T03:51:11.253Z,984.00
2022-12-23T03:52:15.801Z,983.99
2022-12-23T03:53:12.225Z,984.07
2022-12-23T03:54:11.222Z,984.07
2022-12-23T03:55:11.201Z,984.10
2022-12-23T03:56:11.216Z,984.08
2022-12-23T03:57:11.215Z,984.05
2022-12-23T03:58:11.180Z,984.13
2022-12-23T03:59:11.180Z,984.08
2022-12-23T04:00:11.178Z,984.08
2022-12-23T04:01:11.178Z,984.04
2022-12-23T04:02:11.323Z,984.10
2022-12-23T04:03:11.116Z,984.11
2022-12-23T04:04:11.203Z,984.11
2022-12-23T04:05:11.106Z,984.14
2022-12-23T04:06:11.103Z,984.13
2022-12-23T04:07:11.147Z,984.12
2022-12-23T04:08:11.088Z,984.18
2022-12-23T04:09:11.287Z,984.20
2022-12-23T04:10:11.065Z,984.25
2022-12-23T04:11:11.045Z,984.30
2022-12-23T04:12:11.048Z,984.30
2022-12-23T04:13:11.029Z,984.27
2022-12-23T04:14:11.014Z,984.24
2022-12-23T04:15:13.379Z,984.29
2022-12-23T04:16:11.050Z,984.28
2022-12-23T04:17:11.001Z,984.29
2022-12-23T04:18:10.971Z,984.29
2022-12-23T04:19:10.956Z,984.35
2022-12-23T04:20:10.965Z,984.31
2022-12-23T04:21:10.934Z,984.32
2022-12-23T04:22:10.948Z,984.37
2022-12-23T04:23:10.910Z,984.35
2022-12-23T04:24:10.904Z,984.32
2022-12-23T04:25:10.891Z,984.34
2022-12-23T04:26:10.885Z,984.35
2022-12-23T04:27:10.868Z,984.39
2022-12-23T04:28:10.884Z,984.39
2022-12-23T04:29:10.870Z,984.43
2022-12-23T04:30:10.845Z,984.40
2022-12-23T04:31:10.948Z,984.44
2022-12-23T04:32:10.873Z,984.44
2022-12-23T04:33:10.824Z,984.45
2022-12-23T04:34:10.802Z,984.42
2022-12-23T04:35:10.794Z,984.39
2022-12-23T04:36:10.777Z,984.42
2022-12-23T04:37:10.775Z,984.40
2022-12-23T04:38:10.778Z,984.41
2022-12-23T04:39:10.755Z,984.38
2022-12-23T04:40:10.754Z,984.47
2022-12-23T04:41:10.722Z,984.49
2022-12-23T04:42:10.721Z,984.50
2022-12-23T04:43:10.717Z,984.52
2022-12-23T04:44:10.689Z,984.46
2022-12-23T04:45:10.683Z,984.45
2022-12-23T04:46:10.757Z,984.45
2022-12-23T04:47:10.665Z,984.50
2022-12-23T04:48:10.667Z,984.45
2022-12-23T04:49:10.682Z,984.45
2022-12-23T04:50:10.634Z,984.47
2022-12-23T04:51:10.615Z,984.50
2022-12-23T04:52:10.611Z,984.50
2022-12-23T04:53:10.622Z,984.46
2022-12-23T04:54:10.606Z,984.51
2022-12-23T04:55:10.581Z,984.51
2022-12-23T04:56:10.565Z,984.49
2022-12-23T04:57:10.544Z,984.59
2022-12-23T04:58:10.561Z,984.52
2022-12-23T04:59:10.568Z,984.55
2022-12-23T05:00:10.535Z,984.50
2022-12-23T05:01:10.597Z,984.48
2022-12-23T05:02:10.756Z,984.44
2022-12-23T05:03:10.648Z,984.38
2022-12-23T05:04:10.485Z,984.45
2022-12-23T05:05:10.476Z,984.43
2022-12-23T05:06:10.456Z,984.42
2022-12-23T05:07:10.454Z,984.41
2022-12-23T05:08:10.457Z,984.42
2022-12-23T05:09:10.425Z,984.42
2022-12-23T05:10:10.418Z,984.42
2022-12-23T05:11:10.405Z,984.40
2022-12-23T05:12:10.398Z,984.43
2022-12-23T05:13:10.397Z,984.48
2022-12-23T05:14:10.384Z,984.43
2022-12-23T05:15:10.368Z,984.44
2022-12-23T05:16:10.396Z,984.45
2022-12-23T05:17:10.354Z,984.41
2022-12-23T05:18:10.357Z,984.45
2022-12-23T05:19:10.332Z,984.50
2022-12-23T05:20:10.317Z,984.46
2022-12-23T05:21:10.301Z,984.46
2022-12-23T05:22:10.306Z,984.47
2022-12-23T05:23:10.292Z,984.54
2022-12-23T05:24:10.274Z,984.53
2022-12-23T05:25:10.254Z,984.56
2022-12-23T05:26:10.262Z,984.53
2022-12-23T05:27:10.258Z,984.54
2022-12-23T05:28:10.251Z,984.57
2022-12-23T05:29:10.222Z,984.63
2022-12-23T05:30:10.211Z,984.69
2022-12-23T05:31:10.254Z,984.59
2022-12-23T05:32:10.304Z,984.67
2022-12-23T05:33:10.237Z,984.64
2022-12-23T05:34:10.308Z,984.63
2022-12-23T05:35:10.155Z,984.55
2022-12-23T05:36:10.147Z,984.55
2022-12-23T05:37:10.122Z,984.49
2022-12-23T05:38:10.157Z,984.50
2022-12-23T05:39:10.115Z,984.60
2022-12-23T05:40:10.107Z,984.61
2022-12-23T05:41:10.097Z,984.74
2022-12-23T05:42:10.087Z,984.73
2022-12-23T05:43:10.085Z,984.75
2022-12-23T05:44:10.056Z,984.79
2022-12-23T05:45:10.037Z,984.76
2022-12-23T05:46:10.131Z,984.79
2022-12-23T05:47:10.019Z,984.84
2022-12-23T05:48:10.038Z,984.91
2022-12-23T05:49:10.005Z,984.93
2022-12-23T05:50:09.996Z,984.89
2022-12-23T05:51:09.990Z,984.89
2022-12-23T05:52:09.970Z,984.84
2022-12-23T05:53:09.991Z,984.82
2022-12-23T05:54:09.966Z,984.84
2022-12-23T05:55:09.939Z,984.84
2022-12-23T05:56:09.929Z,984.91
2022-12-23T05:57:09.931Z,984.90
2022-12-23T05:58:09.925Z,984.85
2022-12-23T05:59:09.896Z,984.87
2022-12-23T06:00:09.891Z,984.86
2022-12-23T06:01:09.873Z,984.86
2022-12-23T06:02:10.036Z,984.83
2022-12-23T06:03:10.050Z,984.81
2022-12-23T06:04:09.952Z,984.88
2022-12-23T06:05:09.835Z,984.87
2022-12-23T06:06:09.821Z,984.93
2022-12-23T06:07:09.815Z,984.94
2022-12-23T06:08:09.807Z,984.93
2022-12-23T06:09:09.818Z,984.90
2022-12-23T06:10:09.785Z,984.91
2022-12-23T06:11:09.764Z,984.95
2022-12-23T06:12:09.776Z,984.92
2022-12-23T06:13:09.750Z,984.88
2022-12-23T06:14:09.760Z,984.89
2022-12-23T06:15:09.741Z,984.88
2022-12-23T06:16:09.860Z,984.89
2022-12-23T06:17:09.778Z,984.93
2022-12-23T06:18:09.700Z,985.00
2022-12-23T06:19:09.701Z,985.00
2022-12-23T06:20:13.364Z,985.00
2022-12-23T06:21:10.680Z,984.97
2022-12-23T06:22:09.658Z,984.91
2022-12-23T06:23:09.644Z,984.96
2022-12-23T06:24:09.655Z,984.97
2022-12-23T06:25:09.625Z,985.02
2022-12-23T06:26:09.612Z,984.99
2022-12-23T06:27:09.595Z,984.99
2022-12-23T06:28:09.602Z,984.91
2022-12-23T06:29:09.592Z,984.87
2022-12-23T06:30:09.570Z,984.96
2022-12-23T06:31:09.561Z,984.98
2022-12-23T06:32:09.574Z,984.97
2022-12-23T06:33:09.535Z,985.03
2022-12-23T06:34:09.549Z,985.00
2022-12-23T06:35:09.525Z,984.98
2022-12-23T06:36:09.522Z,985.06
2022-12-23T06:37:09.497Z,985.01
2022-12-23T06:38:12.149Z,985.05
2022-12-23T06:39:09.485Z,985.11
2022-12-23T06:40:09.492Z,985.09
2022-12-23T06:41:09.463Z,985.10
2022-12-23T06:42:09.446Z,985.12
2022-12-23T06:43:09.442Z,985.14
2022-12-23T06:44:09.444Z,985.14
2022-12-23T06:45:09.408Z,985.21
2022-12-23T06:46:09.457Z,985.22
2022-12-23T06:47:09.410Z,985.21
2022-12-23T06:48:09.387Z,985.25
2022-12-23T06:49:13.401Z,985.25
2022-12-23T06:50:09.362Z,985.25
2022-12-23T06:51:09.349Z,985.28
2022-12-23T06:52:09.339Z,985.31
2022-12-23T06:53:09.338Z,985.32
2022-12-23T06:54:09.337Z,985.37
2022-12-23T06:55:09.308Z,985.36
2022-12-23T06:56:09.300Z,985.42
2022-12-23T06:57:09.288Z,985.41
2022-12-23T06:58:09.280Z,985.48
2022-12-23T06:59:09.231Z,985.43
2022-12-23T07:00:09.211Z,985.51
2022-12-23T07:01:10.228Z,985.49
2022-12-23T07:02:09.379Z,985.50
2022-12-23T07:03:09.453Z,985.60
2022-12-23T07:04:09.232Z,985.58
2022-12-23T07:05:09.207Z,985.58
2022-12-23T07:06:09.187Z,985.50
2022-12-23T07:07:09.186Z,985.58
2022-12-23T07:08:09.164Z,985.55
2022-12-23T07:09:09.138Z,985.54
2022-12-23T07:10:09.154Z,985.55
2022-12-23T07:11:09.143Z,985.59
2022-12-23T07:12:09.087Z,985.59
2022-12-23T07:13:09.068Z,985.62
2022-12-23T07:14:09.068Z,985.64
2022-12-23T07:15:09.049Z,985.70
2022-12-23T07:16:09.121Z,985.70
2022-12-23T07:17:09.111Z,985.71
2022-12-23T07:18:09.007Z,985.76
2022-12-23T07:19:09.022Z,985.79
2022-12-23T07:20:09.039Z,985.75
2022-12-23T07:21:17.728Z,985.76
2022-12-23T07:22:09.964Z,985.75
2022-12-23T07:23:08.959Z,985.68
2022-12-23T07:24:08.976Z,985.72
2022-12-23T07:25:08.979Z,985.64
2022-12-23T07:26:08.941Z,985.65
2022-12-23T07:27:08.918Z,985.65
2022-12-23T07:28:08.917Z,985.63
2022-12-23T07:29:08.921Z,985.57
2022-12-23T07:30:08.881Z,985.56
2022-12-23T07:31:08.943Z,985.64
2022-12-23T07:32:08.948Z,985.66
2022-12-23T07:33:08.862Z,985.60
2022-12-23T07:34:08.862Z,985.64
2022-12-23T07:35:08.833Z,985.62
2022-12-23T07:36:08.826Z,985.65
2022-12-23T07:37:08.815Z,985.66
2022-12-23T07:38:08.802Z,985.70
2022-12-23T07:39:08.817Z,985.70
2022-12-23T07:40:09.166Z,985.73
2022-12-23T07:41:08.769Z,985.73
2022-12-23T07:42:42.660Z,985.66
2022-12-23T07:43:09.750Z,985.65
2022-12-23T07:44:08.765Z,985.60
2022-12-23T07:45:08.765Z,985.70
2022-12-23T07:46:08.765Z,985.65
2022-12-23T07:47:08.715Z,985.62
2022-12-23T07:48:08.697Z,985.67
2022-12-23T07:49:08.709Z,985.64
2022-12-23T07:50:08.676Z,985.60
2022-12-23T07:51:08.677Z,985.57
2022-12-23T07:52:08.649Z,985.59
2022-12-23T07:53:08.638Z,985.55
2022-12-23T07:54:08.647Z,985.55
2022-12-23T07:55:08.646Z,985.54
2022-12-23T07:56:08.607Z,985.58
2022-12-23T07:57:08.600Z,985.56
2022-12-23T07:58:08.580Z,985.55
2022-12-23T07:59:08.619Z,985.57
2022-12-23T08:00:08.583Z,985.62
2022-12-23T08:01:08.657Z,985.58
2022-12-23T08:02:08.730Z,985.62
2022-12-23T08:03:08.655Z,985.59
2022-12-23T08:04:08.543Z,985.61
2022-12-23T08:05:08.615Z,985.58
2022-12-23T08:06:08.518Z,985.61
2022-12-23T08:07:08.492Z,985.63
2022-12-23T08:08:08.502Z,985.55
2022-12-23T08:09:08.500Z,985.55
2022-12-23T08:10:08.455Z,985.58
2022-12-23T08:11:08.474Z,985.64
2022-12-23T08:12:08.436Z,985.63
2022-12-23T08:13:08.432Z,985.69
2022-12-23T08:14:08.444Z,985.75
2022-12-23T08:15:08.413Z,985.81
2022-12-23T08:16:08.470Z,985.85
2022-12-23T08:17:08.459Z,985.86
2022-12-23T08:18:08.383Z,985.81
2022-12-23T08:19:08.366Z,985.81
2022-12-23T08:20:08.383Z,985.93
2022-12-23T08:21:08.347Z,985.98
2022-12-23T08:22:08.341Z,986.01
2022-12-23T08:23:08.326Z,986.04
2022-12-23T08:24:08.309Z,986.07
2022-12-23T08:25:08.336Z,986.05
2022-12-23T08:26:08.292Z,986.09
2022-12-23T08:27:08.279Z,986.06
2022-12-23T08:28:08.277Z,986.06
2022-12-23T08:29:08.281Z,986.09
2022-12-23T08:30:08.261Z,986.04
2022-12-23T08:31:08.326Z,986.07
2022-12-23T08:32:08.230Z,986.09
2022-12-23T08:33:08.224Z,986.14
2022-12-23T08:34:08.207Z,986.16
2022-12-23T08:35:08.233Z,986.22
2022-12-23T08:36:08.203Z,986.22
2022-12-23T08:37:08.181Z,986.22
2022-12-23T08:38:08.170Z,986.30
2022-12-23T08:39:08.154Z,986.33
2022-12-23T08:40:08.164Z,986.29
2022-12-23T08:41:08.135Z,986.35
2022-12-23T08:42:08.120Z,986.31
2022-12-23T08:43:08.117Z,986.22
2022-12-23T08:44:08.103Z,986.23
2022-12-23T08:45:08.122Z,986.13
2022-12-23T08:46:08.135Z,986.18
2022-12-23T08:47:08.074Z,986.07
2022-12-23T08:48:08.059Z,986.08
2022-12-23T08:49:08.064Z,986.05
2022-12-23T08:50:08.055Z,986.01
2022-12-23T08:51:08.027Z,986.05
2022-12-23T08:52:08.026Z,986.03
2022-12-23T08:53:08.015Z,986.01
2022-12-23T08:54:07.989Z,986.02
2022-12-23T08:55:08.016Z,985.98
2022-12-23T08:56:07.975Z,986.02
2022-12-23T08:57:07.973Z,985.92
2022-12-23T08:58:07.951Z,985.99
2022-12-23T08:59:09.334Z,985.96
2022-12-23T09:00:07.956Z,986.07
2022-12-23T09:01:07.955Z,986.14
2022-12-23T09:02:08.110Z,986.08
2022-12-23T09:03:08.046Z,986.06
2022-12-23T09:04:07.892Z,986.03
2022-12-23T09:05:07.913Z,986.05
2022-12-23T09:06:07.888Z,986.07
2022-12-23T09:07:07.863Z,986.09
2022-12-23T09:08:07.853Z,986.06
2022-12-23T09:09:07.854Z,986.03
2022-12-23T09:10:07.850Z,986.09
2022-12-23T09:11:07.826Z,986.08
2022-12-23T09:12:07.815Z,986.07
2022-12-23T09:13:07.797Z,986.13
2022-12-23T09:14:07.785Z,986.16
2022-12-23T09:15:07.803Z,986.12
2022-12-23T09:16:07.902Z,986.15
2022-12-23T09:17:07.760Z,986.10
2022-12-23T09:18:07.737Z,986.06
2022-12-23T09:19:07.812Z,986.07
2022-12-23T09:20:07.752Z,986.05
2022-12-23T09:21:07.716Z,986.11
2022-12-23T09:22:07.702Z,986.10
2022-12-23T09:23:07.697Z,986.11
2022-12-23T09:24:07.703Z,986.19
2022-12-23T09:25:07.691Z,986.18
2022-12-23T09:26:07.660Z,986.14
2022-12-23T09:27:07.649Z,986.18
2022-12-23T09:28:07.656Z,986.13
2022-12-23T09:29:07.631Z,986.15
2022-12-23T09:30:07.673Z,986.16
2022-12-23T09:31:07.665Z,986.15
2022-12-23T09:32:07.601Z,986.25
2022-12-23T09:33:07.603Z,986.21
2022-12-23T09:34:07.577Z,986.16
2022-12-23T09:35:07.583Z,986.16
2022-12-23T09:36:07.568Z,986.13
2022-12-23T09:37:07.546Z,986.20
2022-12-23T09:38:07.535Z,986.24
2022-12-23T09:39:07.525Z,986.32
2022-12-23T09:40:07.536Z,986.27
2022-12-23T09:41:07.503Z,986.24
2022-12-23T09:42:07.496Z,986.25
2022-12-23T09:43:07.476Z,986.24
2022-12-23T09:44:07.489Z,986.31
2022-12-23T09:45:07.485Z,986.35
2022-12-23T09:46:07.505Z,986.28
2022-12-23T09:47:07.438Z,986.25
2022-12-23T09:48:07.426Z,986.25
2022-12-23T09:49:07.426Z,986.31
2022-12-23T09:50:07.425Z,986.38
2022-12-23T09:51:07.400Z,986.36
2022-12-23T09:52:07.392Z,986.22
2022-12-23T09:53:07.372Z,986.19
2022-12-23T09:54:10.844Z,986.29
2022-12-23T09:55:08.378Z,986.35
2022-12-23T09:56:07.347Z,986.41
2022-12-23T09:57:07.338Z,986.31
2022-12-23T09:58:07.324Z,986.26
2022-12-23T09:59:07.313Z,986.27
2022-12-23T10:00:07.321Z,986.37
2022-12-23T10:01:07.307Z,986.36
2022-12-23T10:02:07.398Z,986.27
2022-12-23T10:03:07.506Z,986.20
2022-12-23T10:04:07.333Z,986.20
2022-12-23T10:05:07.266Z,986.33
2022-12-23T10:06:07.234Z,986.34
2022-12-23T10:07:07.237Z,986.27
2022-12-23T10:08:07.215Z,986.25
2022-12-23T10:09:07.213Z,986.23
2022-12-23T10:10:07.213Z,986.29
2022-12-23T10:11:07.185Z,986.23
2022-12-23T10:12:07.175Z,986.26
2022-12-23T10:13:07.169Z,986.26
2022-12-23T10:14:07.155Z,986.27
2022-12-23T10:15:07.165Z,986.29
2022-12-23T10:16:07.167Z,986.23
2022-12-23T10:17:07.128Z,986.21
2022-12-23T10:18:07.112Z,986.19
2022-12-23T10:19:07.116Z,986.17
2022-12-23T10:20:07.113Z,986.14
2022-12-23T10:21:07.078Z,986.09
2022-12-23T10:22:07.069Z,986.03
2022-12-23T10:23:07.066Z,985.99
2022-12-23T10:24:07.050Z,985.95
2022-12-23T10:25:07.060Z,985.94
2022-12-23T10:26:07.023Z,985.92
2022-12-23T10:27:07.029Z,985.94
2022-12-23T10:28:07.063Z,985.90
2022-12-23T10:29:07.004Z,985.92
2022-12-23T10:30:33.690Z,985.91
2022-12-23T10:31:38.617Z,985.88
2022-12-23T10:32:07.998Z,985.90
2022-12-23T10:33:06.968Z,985.86
2022-12-23T10:34:06.970Z,985.91
2022-12-23T10:35:06.965Z,985.89
2022-12-23T10:36:06.970Z,985.91
2022-12-23T10:37:07.016Z,985.90
2022-12-23T10:38:06.908Z,985.90
2022-12-23T10:39:06.893Z,985.92
2022-12-23T10:40:06.909Z,985.94
2022-12-23T10:41:09.618Z,985.92
2022-12-23T10:42:06.873Z,985.94
2022-12-23T10:43:06.848Z,985.90
2022-12-23T10:44:06.836Z,985.91
2022-12-23T10:45:06.857Z,985.92
2022-12-23T10:46:06.852Z,985.94
2022-12-23T10:47:06.883Z,985.94
2022-12-23T10:48:11.925Z,985.89
2022-12-23T10:49:07.805Z,985.91
2022-12-23T10:50:06.780Z,985.87
2022-12-23T10:51:06.780Z,985.85
2022-12-23T10:52:06.747Z,985.85
2022-12-23T10:53:06.750Z,985.85
2022-12-23T10:54:06.730Z,985.90
2022-12-23T10:55:06.733Z,985.84
2022-12-23T10:56:06.729Z,985.79
2022-12-23T10:57:06.704Z,985.82
2022-12-23T10:58:06.706Z,985.78
2022-12-23T10:59:06.689Z,985.82
2022-12-23T11:00:06.679Z,985.83
2022-12-23T11:01:11.998Z,985.73
2022-12-23T11:02:07.881Z,985.82
2022-12-23T11:03:06.712Z,985.83
2022-12-23T11:04:06.622Z,985.85
2022-12-23T11:05:06.625Z,985.88
2022-12-23T11:06:06.629Z,985.90
2022-12-23T11:07:42.197Z,985.92
2022-12-23T11:08:07.574Z,985.87
2022-12-23T11:09:07.396Z,985.88
2022-12-23T11:10:06.568Z,985.92
2022-12-23T11:11:06.584Z,985.96
2022-12-23T11:12:06.547Z,985.87
2022-12-23T11:13:06.529Z,985.94
2022-12-23T11:14:06.544Z,985.91
2022-12-23T11:15:06.512Z,985.92
2022-12-23T11:16:06.567Z,985.90
2022-12-23T11:17:06.505Z,985.80
2022-12-23T11:18:06.491Z,985.79
2022-12-23T11:19:06.486Z,985.81
2022-12-23T11:20:06.461Z,985.83
2022-12-23T11:21:06.467Z,985.78
2022-12-23T11:22:06.455Z,985.77
2022-12-23T11:23:06.441Z,985.74
2022-12-23T11:24:06.413Z,985.77
2022-12-23T11:25:06.403Z,985.76
2022-12-23T11:26:06.415Z,985.75
2022-12-23T11:27:06.389Z,985.76
2022-12-23T11:28:06.381Z,985.71
2022-12-23T11:29:06.362Z,985.71
2022-12-23T11:30:06.355Z,985.70
2022-12-23T11:31:06.414Z,985.67
2022-12-23T11:32:06.392Z,985.66
2022-12-23T11:33:06.316Z,985.66
2022-12-23T11:34:06.316Z,985.65
2022-12-23T11:35:06.333Z,985.61
2022-12-23T11:36:06.305Z,985.55
2022-12-23T11:37:07.759Z,985.52
2022-12-23T11:38:06.278Z,985.57
2022-12-23T11:39:06.257Z,985.54
2022-12-23T11:40:06.247Z,985.54
2022-12-23T11:41:06.247Z,985.50
2022-12-23T11:42:06.230Z,985.46
2022-12-23T11:43:06.210Z,985.38
2022-12-23T11:44:06.206Z,985.46
2022-12-23T11:45:06.199Z,985.36
2022-12-23T11:46:06.235Z,985.33
2022-12-23T11:47:06.171Z,985.38
2022-12-23T11:48:06.161Z,985.29
2022-12-23T11:49:06.148Z,985.23
2022-12-23T11:50:06.150Z,985.23
2022-12-23T11:51:06.159Z,985.15
2022-12-23T11:52:06.124Z,985.16
2022-12-23T11:53:06.109Z,985.12
2022-12-23T11:54:06.101Z,985.17
2022-12-23T11:55:06.097Z,985.17
2022-12-23T11:56:06.094Z,985.11
2022-12-23T11:57:06.152Z,985.13
2022-12-23T11:58:06.055Z,985.12
2022-12-23T11:59:06.044Z,985.07
2022-12-23T12:00:06.041Z,985.08
2022-12-23T12:01:06.035Z,985.09
2022-12-23T12:02:06.082Z,985.08
2022-12-23T12:03:06.051Z,985.03
2022-12-23T12:04:05.994Z,985.05
2022-12-23T12:05:05.975Z,984.99
2022-12-23T12:06:05.986Z,985.05
2022-12-23T12:07:05.973Z,985.08
2022-12-23T12:08:05.953Z,985.02
2022-12-23T12:09:05.937Z,985.01
2022-12-23T12:10:05.931Z,985.01
2022-12-23T12:11:05.959Z,984.94
2022-12-23T12:12:05.908Z,984.95
2022-12-23T12:13:05.914Z,984.85
2022-12-23T12:14:05.890Z,984.85
2022-12-23T12:15:05.871Z,984.85
2022-12-23T12:16:05.880Z,984.83
2022-12-23T12:17:05.932Z,984.77
2022-12-23T12:18:05.851Z,984.75
2022-12-23T12:19:05.840Z,984.74
2022-12-23T12:20:05.836Z,984.79
2022-12-23T12:21:05.833Z,984.74
2022-12-23T12:22:05.830Z,984.75
2022-12-23T12:23:05.789Z,984.79
2022-12-23T12:24:18.439Z,984.76
2022-12-23T12:25:06.764Z,984.79
2022-12-23T12:26:05.764Z,984.80
2022-12-23T12:27:05.783Z,984.87
2022-12-23T12:28:05.745Z,984.80